createdAt,value
2018-10-05T00:00:32.515Z,17.90
2018-10-05T00:03:06.162Z,17.63
2018-10-05T00:05:40.559Z,17.37
2018-10-05T00:08:20.413Z,17.03
2018-10-05T00:10:54.013Z,17.60
2018-10-05T00:13:33.889Z,18.93
2018-10-05T00:16:13.726Z,18.60
2018-10-05T00:18:47.184Z,19.93
2018-10-05T00:21:20.681Z,18.53
2018-10-05T00:23:56.092Z,22.07
2018-10-05T00:26:33.817Z,19.90
2018-10-05T00:29:14.282Z,18.93
2018-10-05T00:31:47.799Z,18.67
2018-10-05T00:34:27.803Z,20.40
2018-10-05T00:37:01.368Z,19.87
2018-10-05T00:39:34.812Z,19.67
2018-10-05T00:42:08.415Z,22.77
2018-10-05T00:44:41.807Z,19.17
2018-10-05T00:47:15.465Z,20.27
2018-10-05T00:49:48.815Z,21.00
2018-10-05T00:52:28.753Z,20.60
2018-10-05T00:55:02.265Z,19.97
2018-10-05T00:57:35.544Z,20.87
2018-10-05T01:00:09.131Z,21.27
2018-10-05T01:02:44.525Z,19.73
2018-10-05T01:05:18.041Z,20.97
2018-10-05T01:07:57.975Z,19.87
2018-10-05T01:10:31.595Z,21.17
2018-10-05T01:13:04.993Z,21.47
2018-10-05T01:15:38.610Z,21.03
2018-10-05T01:18:11.931Z,20.57
2018-10-05T01:20:45.318Z,21.43
2018-10-05T01:23:18.843Z,19.90
2018-10-05T01:25:52.224Z,20.17
2018-10-05T01:28:25.925Z,20.17
2018-10-05T01:30:59.583Z,20.00
2018-10-05T01:33:33.164Z,19.30
2018-10-05T01:36:06.448Z,19.03
2018-10-05T01:38:40.906Z,18.17
2018-10-05T01:41:14.280Z,19.23
2018-10-05T01:43:47.808Z,18.20
2018-10-05T01:46:21.136Z,18.23
2018-10-05T01:48:54.752Z,18.37
2018-10-05T01:51:35.787Z,19.13
2018-10-05T01:54:09.322Z,17.07
2018-10-05T01:56:42.818Z,18.17
2018-10-05T01:59:16.161Z,20.00
2018-10-05T02:01:49.653Z,19.60
2018-10-05T02:04:23.179Z,19.43
2018-10-05T02:06:56.697Z,18.67
2018-10-05T02:09:30.313Z,19.37
2018-10-05T02:12:04.305Z,20.50
2018-10-05T02:14:37.714Z,18.67
2018-10-05T02:17:11.321Z,18.87
2018-10-05T02:19:44.837Z,18.67
2018-10-05T02:22:18.434Z,18.30
2018-10-05T02:24:51.932Z,19.03
2018-10-05T02:27:25.511Z,19.90
2018-10-05T02:29:59.069Z,18.40
2018-10-05T02:32:37.856Z,19.50
2018-10-05T02:35:11.378Z,19.63
2018-10-05T02:37:44.952Z,19.83
2018-10-05T02:40:18.584Z,21.00
2018-10-05T02:42:55.064Z,21.40
2018-10-05T02:45:28.646Z,21.37
2018-10-05T02:48:02.045Z,20.47
2018-10-05T02:50:35.641Z,20.43
2018-10-05T02:53:09.158Z,21.13
2018-10-05T02:55:42.661Z,21.77
2018-10-05T02:58:16.285Z,20.73
2018-10-05T03:01:07.656Z,21.07
2018-10-05T03:03:43.174Z,19.67
2018-10-05T03:06:16.702Z,20.90
2018-10-05T03:08:50.272Z,20.43
2018-10-05T03:11:23.939Z,19.00
2018-10-05T03:14:03.929Z,19.20
2018-10-05T03:16:37.420Z,20.30
2018-10-05T03:19:11.886Z,19.80
2018-10-05T03:21:45.472Z,19.83
2018-10-05T03:24:18.905Z,19.80
2018-10-05T03:26:52.336Z,20.43
2018-10-05T03:29:25.925Z,19.57
2018-10-05T03:31:59.359Z,18.90
2018-10-05T03:34:32.863Z,18.20
2018-10-05T03:37:06.350Z,19.50
2018-10-05T03:39:40.299Z,19.13
2018-10-05T03:42:14.799Z,19.90
2018-10-05T03:44:54.689Z,18.73
2018-10-05T03:47:28.205Z,18.07
2018-10-05T03:50:02.849Z,18.30
2018-10-05T03:52:36.205Z,19.00
2018-10-05T03:55:09.971Z,19.00
2018-10-05T03:57:44.430Z,18.17
2018-10-05T04:00:17.835Z,18.20
2018-10-05T04:02:51.195Z,18.13
2018-10-05T04:05:24.583Z,19.17
2018-10-05T04:07:58.178Z,18.50
2018-10-05T04:10:38.252Z,18.43
2018-10-05T04:13:18.273Z,18.40
2018-10-05T04:15:51.746Z,17.60
2018-10-05T04:18:25.249Z,17.77
2018-10-05T04:21:05.301Z,17.47
2018-10-05T04:23:38.870Z,18.50
2018-10-05T04:26:18.768Z,18.50
2018-10-05T04:28:52.143Z,18.37
2018-10-05T04:31:25.560Z,17.97
2018-10-05T04:33:58.962Z,19.37
2018-10-05T04:36:38.866Z,18.53
2018-10-05T04:39:18.580Z,17.63
2018-10-05T04:41:51.973Z,18.50
2018-10-05T04:44:26.268Z,18.93
2018-10-05T04:46:59.651Z,18.00
2018-10-05T04:49:34.137Z,17.53
2018-10-05T04:52:13.984Z,17.57
2018-10-05T04:54:48.506Z,17.77
2018-10-05T04:57:22.805Z,19.20
2018-10-05T04:59:56.147Z,17.83
2018-10-05T05:02:29.638Z,17.97
2018-10-05T05:05:03.296Z,18.23
2018-10-05T05:07:37.712Z,17.30
2018-10-05T05:10:11.268Z,18.53
2018-10-05T05:12:44.633Z,19.13
2018-10-05T05:15:24.509Z,17.80
2018-10-05T05:17:57.914Z,17.30
2018-10-05T05:20:31.479Z,17.57
2018-10-05T05:23:11.253Z,18.13
2018-10-05T05:25:51.242Z,17.43
2018-10-05T05:28:24.582Z,16.90
2018-10-05T05:30:58.056Z,17.33
2018-10-05T05:33:31.429Z,16.70
2018-10-05T05:36:11.334Z,18.20
2018-10-05T05:38:46.110Z,18.13
2018-10-05T05:41:19.626Z,17.50
2018-10-05T05:43:59.592Z,17.70
2018-10-05T05:46:33.098Z,17.60
2018-10-05T05:49:06.734Z,17.20
2018-10-05T05:51:40.440Z,16.73
2018-10-05T05:54:13.838Z,17.17
2018-10-05T05:56:47.414Z,16.60
2018-10-05T05:59:20.920Z,17.67
2018-10-05T06:02:00.607Z,17.00
2018-10-05T06:04:40.478Z,16.93
2018-10-05T06:07:20.318Z,17.50
2018-10-05T06:09:54.103Z,17.47
2018-10-05T06:12:33.929Z,16.67
2018-10-05T06:15:08.431Z,17.43
2018-10-05T06:17:41.945Z,16.03
2018-10-05T06:20:15.407Z,17.40
2018-10-05T06:22:49.028Z,15.70
2018-10-05T06:25:22.525Z,16.47
2018-10-05T06:27:56.220Z,15.73
2018-10-05T06:30:29.620Z,16.67
2018-10-05T06:33:09.676Z,16.57
2018-10-05T06:35:49.506Z,14.97
2018-10-05T06:38:29.472Z,15.23
2018-10-05T06:41:03.035Z,14.70
2018-10-05T06:43:37.439Z,16.40
2018-10-05T06:46:10.909Z,15.80
2018-10-05T06:48:44.426Z,15.10
2018-10-05T06:51:17.829Z,15.67
2018-10-05T06:53:51.147Z,14.73
2018-10-05T06:56:31.139Z,13.50
2018-10-05T06:59:04.649Z,15.30
2018-10-05T07:01:38.447Z,14.10
2018-10-05T07:04:11.808Z,15.23
2018-10-05T07:06:46.179Z,15.37
2018-10-05T07:09:19.753Z,15.90
2018-10-05T07:11:53.336Z,14.30
2018-10-05T07:14:26.804Z,13.87
2018-10-05T07:17:00.294Z,14.23
2018-10-05T07:19:34.739Z,14.43
2018-10-05T07:22:14.713Z,14.50
2018-10-05T07:24:49.080Z,14.00
2018-10-05T07:27:22.672Z,14.40
2018-10-05T07:29:57.209Z,14.97
2018-10-05T07:32:33.782Z,13.97
2018-10-05T07:35:13.666Z,13.43
2018-10-05T07:37:47.242Z,13.63
2018-10-05T07:40:27.230Z,15.00
2018-10-05T07:43:00.798Z,13.50
2018-10-05T07:45:40.698Z,12.83
2018-10-05T07:48:20.447Z,13.47
2018-10-05T07:50:54.044Z,14.30
2018-10-05T07:53:27.626Z,14.40
2018-10-05T07:56:01.154Z,13.30
2018-10-05T07:58:34.695Z,13.30
2018-10-05T08:01:08.244Z,12.63
2018-10-05T08:03:48.011Z,12.90
2018-10-05T08:06:21.554Z,12.43
2018-10-05T08:09:01.402Z,13.43
2018-10-05T08:11:35.017Z,13.00
2018-10-05T08:14:14.823Z,12.20
2018-10-05T08:16:54.807Z,12.83
2018-10-05T08:19:29.288Z,12.50
2018-10-05T08:22:02.918Z,13.63
2018-10-05T08:24:36.508Z,13.20
2018-10-05T08:27:10.002Z,13.40
2018-10-05T08:29:43.339Z,12.77
2018-10-05T08:32:22.965Z,13.00
2018-10-05T08:34:57.426Z,12.53
2018-10-05T08:37:30.982Z,13.13
2018-10-05T08:40:11.037Z,12.90
2018-10-05T08:42:45.222Z,12.10
2018-10-05T08:45:18.913Z,11.30
2018-10-05T08:47:52.321Z,11.23
2018-10-05T08:50:25.900Z,10.30
2018-10-05T08:52:59.399Z,10.77
2018-10-05T08:55:33.769Z,10.77
2018-10-05T08:58:07.400Z,11.27
2018-10-05T09:00:40.855Z,10.23
2018-10-05T09:03:20.590Z,10.47
2018-10-05T09:05:54.955Z,10.20
2018-10-05T09:08:28.391Z,9.77
2018-10-05T09:11:05.089Z,9.27
2018-10-05T09:13:44.838Z,10.20
2018-10-05T09:16:18.290Z,10.47
2018-10-05T09:18:51.860Z,9.50
2018-10-05T09:21:31.768Z,9.10
2018-10-05T09:24:05.312Z,8.37
2018-10-05T09:26:38.807Z,8.40
2018-10-05T09:29:18.717Z,7.90
2018-10-05T09:31:58.792Z,7.35
2018-10-05T09:34:32.198Z,7.20
2018-10-05T09:44:08.827Z,6.70
2018-10-05T09:46:42.136Z,7.65
2018-10-05T09:49:22.095Z,8.20
2018-10-05T09:51:55.728Z,7.50
2018-10-05T09:54:30.039Z,8.15
2018-10-05T09:57:05.681Z,7.40
2018-10-05T09:59:40.310Z,8.23
2018-10-05T10:03:18.289Z,8.85
2018-10-05T10:05:51.645Z,9.07
2018-10-05T10:08:31.628Z,9.23
2018-10-05T10:11:05.107Z,8.68
2018-10-05T10:13:38.636Z,8.23
2018-10-05T10:16:18.250Z,8.57
2018-10-05T10:18:52.633Z,7.47
2018-10-05T10:21:32.575Z,7.90
2018-10-05T10:24:06.011Z,9.40
2018-10-05T10:26:39.551Z,8.50
2018-10-05T10:29:19.511Z,8.17
2018-10-05T10:31:59.513Z,8.47
2018-10-05T10:34:39.267Z,8.17
2018-10-05T10:37:18.897Z,7.53
2018-10-05T10:39:58.658Z,7.60
2018-10-05T10:42:38.609Z,7.57
2018-10-05T10:45:12.184Z,7.58
2018-10-05T10:47:52.001Z,7.57
2018-10-05T10:50:31.986Z,6.95
2018-10-05T10:53:05.369Z,6.78
2018-10-05T10:55:45.094Z,7.40
2018-10-05T10:58:19.485Z,7.75
2018-10-05T11:00:53.986Z,7.33
2018-10-05T11:03:29.045Z,7.40
2018-10-05T11:06:03.507Z,8.40
2018-10-05T11:08:37.237Z,7.03
2018-10-05T11:11:17.039Z,7.23
2018-10-05T11:13:50.459Z,7.22
2018-10-05T11:16:25.016Z,7.00
2018-10-05T11:18:58.624Z,6.95
2018-10-05T11:21:32.250Z,6.40
2018-10-05T11:24:05.820Z,6.70
2018-10-05T11:26:46.203Z,7.33
2018-10-05T11:29:26.124Z,7.15
2018-10-05T11:31:59.719Z,7.05
2018-10-05T11:34:35.265Z,7.20
2018-10-05T11:37:15.417Z,6.70
2018-10-05T11:39:48.824Z,6.10
2018-10-05T11:42:28.532Z,6.40
2018-10-05T11:45:02.073Z,7.12
2018-10-05T11:47:41.944Z,7.28
2018-10-05T11:50:21.811Z,6.22
2018-10-05T11:52:55.201Z,5.60
2018-10-05T11:55:28.635Z,5.47
2018-10-05T11:58:02.113Z,5.20
2018-10-05T12:00:35.650Z,5.25
2018-10-05T12:03:10.095Z,5.30
2018-10-05T12:05:50.118Z,5.50
2018-10-05T12:08:23.748Z,4.97
2018-10-05T12:10:57.488Z,5.50
2018-10-05T12:13:31.149Z,5.85
2018-10-05T12:16:04.778Z,5.90
2018-10-05T12:18:38.272Z,6.03
2018-10-05T12:21:11.777Z,6.15
2018-10-05T12:23:45.313Z,5.80
2018-10-05T12:26:25.342Z,4.70
2018-10-05T12:28:59.003Z,4.45
2018-10-05T12:31:32.536Z,4.80
2018-10-05T12:34:06.120Z,4.50
2018-10-05T12:36:45.990Z,4.72
2018-10-05T12:39:19.525Z,5.10
2018-10-05T12:41:53.103Z,4.80
2018-10-05T12:44:26.695Z,4.55
2018-10-05T12:47:00.378Z,4.35
2018-10-05T12:49:34.131Z,4.37
2018-10-05T12:52:14.073Z,3.60
2018-10-05T12:54:47.662Z,4.55
2018-10-05T12:57:27.728Z,4.12
2018-10-05T13:00:01.154Z,4.30
2018-10-05T13:02:41.020Z,3.90
2018-10-05T13:05:14.630Z,3.77
2018-10-05T13:07:54.544Z,3.45
2018-10-05T13:10:27.920Z,3.60
2018-10-05T13:13:01.460Z,3.52
2018-10-05T13:15:41.274Z,4.40
2018-10-05T13:18:21.336Z,3.25
2018-10-05T13:21:01.157Z,4.03
2018-10-05T13:23:34.528Z,4.05
2018-10-05T13:26:08.491Z,3.62
2018-10-05T13:28:42.055Z,3.72
2018-10-05T13:31:15.458Z,3.55
2018-10-05T13:33:42.839Z,3.12
2018-10-05T13:36:10.093Z,3.15
2018-10-05T13:38:43.632Z,3.20
2018-10-05T13:41:17.229Z,3.25
2018-10-05T13:43:50.795Z,3.22
2018-10-05T13:46:24.346Z,3.52
2018-10-05T13:48:57.892Z,3.10
2018-10-05T13:51:37.925Z,3.17
2018-10-05T13:54:17.936Z,3.00
2018-10-05T13:56:57.867Z,3.33
2018-10-05T13:59:31.462Z,3.27
2018-10-05T14:02:04.945Z,3.00
2018-10-05T14:04:38.629Z,2.92
2018-10-05T14:07:12.279Z,2.80
2018-10-05T14:09:45.693Z,3.33
2018-10-05T14:12:25.731Z,3.05
2018-10-05T14:15:05.684Z,2.60
2018-10-05T14:17:45.577Z,2.45
2018-10-05T14:20:19.155Z,2.45
2018-10-05T14:22:52.794Z,2.80
2018-10-05T14:25:26.298Z,2.90
2018-10-05T14:27:59.674Z,2.77
2018-10-05T14:30:38.466Z,3.12
2018-10-05T14:33:18.324Z,2.72
2018-10-05T14:35:58.250Z,2.50
2018-10-05T14:38:31.842Z,2.80
2018-10-05T14:41:05.274Z,2.70
2018-10-05T14:43:39.782Z,2.62
2018-10-05T14:46:13.899Z,2.58
2018-10-05T14:48:47.453Z,2.70
2018-10-05T14:51:21.082Z,2.80
2018-10-05T14:54:00.805Z,2.30
2018-10-05T14:56:34.420Z,3.00
2018-10-05T14:59:07.941Z,2.72
2018-10-05T15:01:41.505Z,2.70
2018-10-05T15:04:15.027Z,2.85
2018-10-05T15:06:48.561Z,2.47
2018-10-05T15:09:22.215Z,2.77
2018-10-05T15:12:02.265Z,2.50
2018-10-05T15:14:35.725Z,3.42
2018-10-05T15:17:15.680Z,3.45
2018-10-05T15:19:49.224Z,2.58
2018-10-05T15:22:22.658Z,2.87
2018-10-05T15:24:56.203Z,2.50
2018-10-05T15:27:29.845Z,2.60
2018-10-05T15:30:04.046Z,2.58
2018-10-05T15:32:37.810Z,2.80
2018-10-05T15:35:11.405Z,3.40
2018-10-05T15:37:45.028Z,2.67
2018-10-05T15:40:18.565Z,2.95
2018-10-05T15:42:52.073Z,2.60
2018-10-05T15:45:31.967Z,2.50
2018-10-05T15:48:05.430Z,2.70
2018-10-05T15:50:45.170Z,2.33
2018-10-05T15:53:18.558Z,3.20
2018-10-05T15:55:53.022Z,2.47
2018-10-05T15:58:26.677Z,2.65
2018-10-05T16:01:00.246Z,2.52
2018-10-05T16:03:40.129Z,2.65
2018-10-05T16:06:13.543Z,2.87
2018-10-05T16:08:46.937Z,2.50
2018-10-05T16:11:21.436Z,2.42
2018-10-05T16:13:54.864Z,2.98
2018-10-05T16:16:35.113Z,2.80
2018-10-05T16:19:14.961Z,2.72
2018-10-05T16:21:48.510Z,2.47
2018-10-05T16:24:34.982Z,2.50
2018-10-05T16:27:08.890Z,2.42
2018-10-05T16:29:42.395Z,2.33
2018-10-05T16:32:16.965Z,2.87
2018-10-05T16:34:56.796Z,2.20
2018-10-05T16:37:30.502Z,2.50
2018-10-05T16:40:10.363Z,2.35
2018-10-05T16:42:43.863Z,3.15
2018-10-05T16:45:23.743Z,2.70
2018-10-05T16:47:57.235Z,2.58
2018-10-05T16:50:37.201Z,2.67
2018-10-05T16:53:17.084Z,2.95
2018-10-05T16:55:50.639Z,2.70
2018-10-05T16:58:25.154Z,3.17
2018-10-05T17:00:58.709Z,3.20
2018-10-05T17:03:32.535Z,3.07
2018-10-05T17:06:07.012Z,2.70
2018-10-05T17:08:42.652Z,2.77
2018-10-05T17:11:22.395Z,2.85
2018-10-05T17:13:56.038Z,3.12
2018-10-05T17:16:29.888Z,2.35
2018-10-05T17:19:04.036Z,4.40
2018-10-05T17:21:37.888Z,5.80
2018-10-05T17:24:11.354Z,7.13
2018-10-05T17:26:44.866Z,6.67
2018-10-05T17:29:18.303Z,6.75
2018-10-05T17:31:51.827Z,6.50
2018-10-05T17:34:25.269Z,6.30
2018-10-05T17:37:07.053Z,5.47
2018-10-05T17:39:46.980Z,5.13
2018-10-05T17:42:20.567Z,4.43
2018-10-05T17:44:54.898Z,3.93
2018-10-05T17:47:28.347Z,3.60
2018-10-05T17:50:01.916Z,3.83
2018-10-05T17:52:35.452Z,3.10
2018-10-05T17:55:15.383Z,3.50
2018-10-05T17:57:55.360Z,2.97
2018-10-05T18:00:31.982Z,3.40
2018-10-05T18:03:05.608Z,8.93
2018-10-05T18:05:39.885Z,4.07
2018-10-05T18:08:14.408Z,3.73
2018-10-05T18:10:54.406Z,3.70
2018-10-05T18:13:27.881Z,3.70
2018-10-05T18:16:02.381Z,3.17
2018-10-05T18:18:35.944Z,3.27
2018-10-05T18:21:09.311Z,4.00
2018-10-05T18:23:43.028Z,3.50
2018-10-05T18:26:16.573Z,3.83
2018-10-05T18:28:50.235Z,4.00
2018-10-05T18:31:30.183Z,3.80
2018-10-05T18:34:03.628Z,4.17
2018-10-05T18:36:37.110Z,3.83
2018-10-05T18:39:10.720Z,4.40
2018-10-05T18:41:45.170Z,4.90
2018-10-05T18:44:25.058Z,5.57
2018-10-05T18:47:05.723Z,11.37
2018-10-05T18:49:39.127Z,8.80
2018-10-05T18:52:12.707Z,7.00
2018-10-05T18:54:46.147Z,12.37
2018-10-05T18:57:21.095Z,11.83
2018-10-05T18:59:54.650Z,6.67
2018-10-05T19:02:28.112Z,6.10
2018-10-05T19:05:01.564Z,5.70
2018-10-05T19:07:35.190Z,4.33
2018-10-05T19:10:08.807Z,5.30
2018-10-05T19:12:48.725Z,6.33
2018-10-05T19:15:22.257Z,6.13
2018-10-05T19:17:55.775Z,5.97
2018-10-05T19:20:29.240Z,6.37
2018-10-05T19:23:09.193Z,7.70
2018-10-05T19:25:42.820Z,9.60
2018-10-05T19:28:22.571Z,8.87
2018-10-05T19:31:02.420Z,8.47
2018-10-05T19:33:35.970Z,9.70
2018-10-05T19:36:15.983Z,8.80
2018-10-05T19:38:49.389Z,9.03
2018-10-05T19:41:22.917Z,9.47
2018-10-05T19:43:57.360Z,9.40
2018-10-05T19:46:32.028Z,9.83
2018-10-05T19:49:05.504Z,11.03
2018-10-05T19:51:45.529Z,10.07
2018-10-05T19:54:19.138Z,10.17
2018-10-05T19:56:54.846Z,10.37
2018-10-05T19:59:28.402Z,9.30
2018-10-05T20:02:08.188Z,8.53
2018-10-05T20:04:48.026Z,7.90
2018-10-05T20:07:21.661Z,8.13
2018-10-05T20:09:56.136Z,7.20
2018-10-05T20:12:30.545Z,7.40
2018-10-05T20:15:10.476Z,8.63
2018-10-05T20:17:44.056Z,8.67
2018-10-05T20:20:23.869Z,8.47
2018-10-05T20:22:57.328Z,8.37
2018-10-05T20:25:30.916Z,7.93
2018-10-05T20:28:04.458Z,8.27
2018-10-05T20:30:37.831Z,7.80
2018-10-05T20:33:11.171Z,8.43
2018-10-05T20:35:51.104Z,9.57
2018-10-05T20:38:31.082Z,9.10
2018-10-05T20:41:04.490Z,9.53
2018-10-05T20:43:37.896Z,11.13
2018-10-05T20:46:11.358Z,12.00
2018-10-05T20:48:51.266Z,12.43
2018-10-05T20:51:31.284Z,12.03
2018-10-05T20:54:04.766Z,11.67
2018-10-05T20:56:44.746Z,11.20
2018-10-05T20:59:24.607Z,11.33
2018-10-05T21:01:58.115Z,10.27
2018-10-05T21:04:38.047Z,10.50
2018-10-05T21:07:15.818Z,10.80
2018-10-05T21:09:49.645Z,10.57
2018-10-05T21:12:29.351Z,9.17
2018-10-05T21:15:03.795Z,10.50
2018-10-05T21:17:37.411Z,9.87
2018-10-05T21:20:10.892Z,10.47
2018-10-05T21:22:44.401Z,10.23
2018-10-05T21:25:17.939Z,9.47
2018-10-05T21:27:51.509Z,8.63
2018-10-05T21:30:25.072Z,9.77
2018-10-05T21:33:03.784Z,9.53
2018-10-05T21:35:37.263Z,8.70
2018-10-05T21:38:10.768Z,8.33
2018-10-05T21:40:44.350Z,8.23
2018-10-05T21:43:17.763Z,8.20
2018-10-05T21:45:57.817Z,8.10
2018-10-05T21:48:31.517Z,8.03
2018-10-05T21:51:05.117Z,8.47
2018-10-05T21:53:38.682Z,8.43
2018-10-05T21:56:12.374Z,8.53
2018-10-05T21:58:46.868Z,9.17
2018-10-05T22:01:20.339Z,9.20
2018-10-05T22:03:54.765Z,9.30
2018-10-05T22:06:28.388Z,9.77
2018-10-05T22:09:04.292Z,9.70
2018-10-05T22:11:37.815Z,8.93
2018-10-05T22:14:17.596Z,8.97
2018-10-05T22:16:52.114Z,8.90
2018-10-05T22:19:25.647Z,9.83
2018-10-05T22:21:59.066Z,9.80
2018-10-05T22:24:32.584Z,8.70
2018-10-05T22:27:06.070Z,8.87
2018-10-05T22:29:39.484Z,8.93
2018-10-05T22:32:15.067Z,9.97
2018-10-05T22:34:48.497Z,11.33
2018-10-05T22:37:22.107Z,10.87
2018-10-05T22:39:55.486Z,10.03
2018-10-05T22:42:35.288Z,9.50
2018-10-05T22:45:08.792Z,10.17
2018-10-05T22:47:48.890Z,9.33
2018-10-05T22:50:22.480Z,10.03
2018-10-05T22:52:55.913Z,11.77
2018-10-05T22:55:35.676Z,11.90
2018-10-05T22:58:09.217Z,12.40
2018-10-05T23:00:42.691Z,12.00
2018-10-05T23:03:16.424Z,11.37
2018-10-05T23:05:49.889Z,11.67
2018-10-05T23:08:29.704Z,10.33
2018-10-05T23:11:03.406Z,9.63
2018-10-05T23:13:43.347Z,10.73
2018-10-05T23:16:16.749Z,10.13
2018-10-05T23:18:50.161Z,10.50
2018-10-05T23:21:29.962Z,10.17
2018-10-05T23:24:03.489Z,10.07
2018-10-05T23:26:37.435Z,9.73
2018-10-05T23:29:10.833Z,10.40
2018-10-05T23:31:38.340Z,10.63
2018-10-05T23:34:11.856Z,10.70
2018-10-05T23:36:46.431Z,10.00
2018-10-05T23:39:26.333Z,10.60
2018-10-05T23:41:59.774Z,11.50
2018-10-05T23:44:34.145Z,10.40
2018-10-05T23:47:07.772Z,10.37
2018-10-05T23:49:41.380Z,9.90
2018-10-05T23:52:26.492Z,10.27
2018-10-05T23:54:59.930Z,10.33
2018-10-05T23:57:34.272Z,10.03
